createdAt,value
2024-03-05T00:00:56.791Z,7.12
2024-03-05T00:05:59.795Z,7.34
2024-03-05T00:11:05.305Z,6.96
2024-03-05T00:16:09.111Z,7.30
2024-03-05T00:21:11.992Z,7.28
2024-03-05T00:26:19.471Z,6.98
2024-03-05T00:31:22.633Z,7.08
2024-03-05T00:36:26.352Z,7.00
2024-03-05T00:41:30.651Z,6.94
2024-03-05T00:46:34.295Z,7.15
2024-03-05T00:51:37.194Z,6.95
2024-03-05T00:56:41.659Z,7.17
2024-03-05T01:01:44.691Z,7.07
2024-03-05T01:06:47.670Z,7.20
2024-03-05T01:11:52.130Z,6.42
2024-03-05T01:16:55.145Z,6.98
2024-03-05T01:21:59.427Z,7.08
2024-03-05T01:27:06.628Z,6.89
2024-03-05T01:32:10.666Z,7.03
2024-03-05T01:37:13.668Z,6.85
2024-03-05T01:42:18.154Z,7.09
2024-03-05T01:47:21.886Z,7.08
2024-03-05T01:52:25.422Z,7.02
2024-03-05T01:57:29.993Z,6.83
2024-03-05T02:02:33.057Z,6.97
2024-03-05T02:07:36.637Z,6.50
2024-03-05T02:12:42.056Z,6.82
2024-03-05T02:17:45.083Z,7.12
2024-03-05T02:22:49.412Z,6.59
2024-03-05T02:27:52.511Z,6.86
2024-03-05T02:32:55.598Z,7.05
2024-03-05T02:37:59.953Z,7.06
2024-03-05T02:43:02.907Z,7.25
2024-03-05T02:48:07.417Z,7.34
2024-03-05T02:53:12.004Z,7.33
2024-03-05T02:58:15.229Z,7.06
2024-03-05T03:03:18.184Z,6.57
2024-03-05T03:08:22.750Z,6.63
2024-03-05T03:13:25.673Z,6.68
2024-03-05T03:18:28.607Z,6.47
2024-03-05T03:23:33.012Z,6.57
2024-03-05T03:28:35.924Z,5.98
2024-03-05T03:33:40.305Z,6.35
2024-03-05T03:38:45.055Z,6.68
2024-03-05T03:43:48.385Z,6.31
2024-03-05T03:48:52.003Z,6.18
2024-03-05T03:53:56.309Z,6.41
2024-03-05T03:58:59.208Z,6.19
2024-03-05T04:04:03.410Z,6.46
2024-03-05T04:09:09.447Z,6.50
2024-03-05T04:14:12.619Z,6.66
2024-03-05T04:19:15.562Z,6.53
2024-03-05T04:24:21.595Z,6.50
2024-03-05T04:29:31.231Z,6.41
2024-03-05T04:34:36.528Z,6.53
2024-03-05T04:39:43.968Z,6.49
2024-03-05T04:44:47.733Z,6.50
2024-03-05T04:49:50.698Z,6.43
2024-03-05T04:54:55.374Z,6.52
2024-03-05T04:59:59.196Z,6.31
2024-03-05T05:05:04.227Z,6.27
2024-03-05T05:10:10.534Z,6.40
2024-03-05T05:15:14.003Z,6.51
2024-03-05T05:20:19.435Z,6.53
2024-03-05T05:25:24.937Z,6.12
2024-03-05T05:30:27.913Z,6.33
2024-03-05T05:35:30.839Z,6.53
2024-03-05T05:40:35.179Z,6.37
2024-03-05T05:45:38.906Z,6.38
2024-03-05T05:50:43.477Z,6.33
2024-03-05T05:55:47.939Z,6.18
2024-03-05T06:00:51.856Z,6.25
2024-03-05T06:05:54.809Z,6.17
2024-03-05T06:10:59.275Z,6.13
2024-03-05T06:16:02.297Z,6.35
2024-03-05T06:21:06.581Z,6.23
2024-03-05T06:26:11.165Z,6.33
2024-03-05T06:31:14.052Z,6.28
2024-03-05T06:36:17.001Z,6.16
2024-03-05T06:41:21.322Z,5.99
2024-03-05T06:46:30.685Z,5.72
2024-03-05T06:51:42.883Z,5.91
2024-03-05T06:56:47.223Z,5.76
2024-03-05T07:01:50.206Z,5.71
2024-03-05T07:06:56.025Z,5.83
2024-03-05T07:12:00.792Z,5.83
2024-03-05T07:17:03.842Z,5.99
2024-03-05T07:22:08.202Z,6.14
2024-03-05T07:27:13.183Z,6.06
2024-03-05T07:32:16.952Z,6.08
2024-03-05T07:37:20.124Z,6.56
2024-03-05T07:42:24.378Z,6.40
2024-03-05T07:47:27.292Z,6.58
2024-03-05T07:52:30.261Z,6.81
2024-03-05T07:57:35.793Z,6.50
2024-03-05T08:02:39.749Z,6.83
2024-03-05T08:07:42.681Z,7.08
2024-03-05T08:12:48.450Z,6.89
2024-03-05T08:17:51.557Z,6.95
2024-03-05T08:22:55.238Z,7.08
2024-03-05T08:28:00.243Z,6.98
2024-03-05T08:33:04.754Z,6.77
2024-03-05T08:38:10.383Z,6.71
2024-03-05T08:43:15.427Z,6.79
2024-03-05T08:48:18.867Z,6.86
2024-03-05T08:53:21.880Z,6.91
2024-03-05T08:58:26.200Z,6.63
2024-03-05T09:03:29.111Z,6.51
2024-03-05T09:08:32.180Z,6.45
2024-03-05T09:13:36.496Z,6.25
2024-03-05T09:18:39.418Z,6.52
2024-03-05T09:23:42.325Z,6.56
2024-03-05T09:28:46.688Z,6.47
2024-03-05T09:33:49.610Z,6.66
2024-03-05T09:38:52.523Z,6.70
2024-03-05T09:43:58.136Z,6.90
2024-03-05T09:49:10.902Z,7.05
2024-03-05T09:54:17.969Z,7.00
2024-03-05T09:59:22.494Z,7.09
2024-03-05T10:04:27.945Z,7.07
2024-03-05T10:09:31.580Z,7.12
2024-03-05T10:14:35.951Z,7.15
2024-03-05T10:19:44.594Z,7.24
2024-03-05T10:24:49.345Z,7.41
2024-03-05T10:29:53.772Z,7.33
2024-03-05T10:34:57.376Z,7.35
2024-03-05T10:40:00.398Z,7.47
2024-03-05T10:45:05.027Z,7.28
2024-03-05T10:50:13.648Z,7.15
2024-03-05T10:55:22.498Z,7.38
2024-03-05T11:00:27.634Z,7.36
2024-03-05T11:05:32.829Z,7.32
2024-03-05T11:10:36.610Z,7.37
2024-03-05T11:15:41.254Z,7.61
2024-03-05T11:20:44.358Z,7.84
2024-03-05T11:25:48.654Z,7.90
2024-03-05T11:31:10.616Z,7.67
2024-03-05T11:36:23.150Z,8.07
2024-03-05T11:41:26.326Z,7.53
2024-03-05T11:46:54.470Z,8.00
2024-03-05T11:52:00.528Z,8.16
2024-03-05T11:57:05.259Z,8.29
2024-03-05T12:02:12.717Z,8.52
2024-03-05T12:07:15.796Z,8.40
2024-03-05T12:12:22.826Z,8.62
2024-03-05T12:17:27.494Z,8.65
2024-03-05T12:22:30.602Z,8.39
2024-03-05T12:27:35.456Z,8.04
2024-03-05T12:32:43.527Z,7.55
2024-03-05T12:37:48.616Z,7.75
2024-03-05T12:42:53.692Z,7.81
2024-03-05T12:48:00.686Z,7.82
2024-03-05T12:53:07.179Z,7.84
2024-03-05T12:58:12.490Z,7.43
2024-03-05T13:03:17.780Z,7.72
2024-03-05T13:08:20.848Z,7.78
2024-03-05T13:13:23.822Z,7.77
2024-03-05T13:18:28.093Z,7.47
2024-03-05T13:23:31.005Z,7.32
2024-03-05T13:28:33.953Z,7.48
2024-03-05T13:33:38.223Z,7.63
2024-03-05T13:38:41.210Z,7.58
2024-03-05T13:43:44.138Z,7.58
2024-03-05T13:48:48.467Z,7.39
2024-03-05T13:53:51.740Z,7.73
2024-03-05T13:58:54.766Z,5.90
2024-03-05T14:03:59.649Z,5.80
2024-03-05T14:09:02.584Z,6.23
2024-03-05T14:14:06.004Z,6.80
2024-03-05T14:19:10.373Z,6.90
2024-03-05T14:24:14.173Z,7.13
2024-03-05T14:29:17.187Z,7.12
2024-03-05T14:34:22.550Z,7.41
2024-03-05T14:39:25.501Z,7.51
2024-03-05T14:44:28.382Z,7.44
2024-03-05T14:49:32.787Z,7.51
2024-03-05T14:54:35.785Z,7.58
2024-03-05T14:59:38.697Z,7.22
2024-03-05T15:04:43.423Z,7.34
2024-03-05T15:09:46.561Z,7.34
2024-03-05T15:14:50.170Z,7.38
2024-03-05T15:19:54.524Z,7.29
2024-03-05T15:24:57.624Z,7.38
2024-03-05T15:30:00.554Z,7.35
2024-03-05T15:35:05.704Z,7.24
2024-03-05T15:40:16.401Z,7.16
2024-03-05T15:45:20.394Z,7.24
2024-03-05T15:50:26.565Z,7.34
2024-03-05T15:55:30.427Z,7.33
2024-03-05T16:00:37.262Z,7.27
2024-03-05T16:05:52.459Z,7.25
2024-03-05T16:11:03.681Z,7.37
2024-03-05T16:16:08.704Z,7.20
2024-03-05T16:21:14.130Z,6.88
2024-03-05T16:26:17.177Z,6.87
2024-03-05T16:31:22.973Z,7.06
2024-03-05T16:36:27.412Z,7.27
2024-03-05T16:41:30.307Z,7.00
2024-03-05T16:46:34.952Z,7.06
2024-03-05T16:51:41.122Z,7.05
2024-03-05T16:56:45.115Z,6.99
2024-03-05T17:01:48.096Z,7.01
2024-03-05T17:06:52.421Z,6.97
2024-03-05T17:11:55.301Z,7.01
2024-03-05T17:16:58.598Z,6.90
2024-03-05T17:22:04.641Z,6.83
2024-03-05T17:27:07.815Z,6.92
2024-03-05T17:32:10.960Z,6.87
2024-03-05T17:37:15.671Z,6.80
2024-03-05T17:42:18.642Z,6.78
2024-03-05T17:47:21.624Z,6.67
2024-03-05T17:52:28.247Z,6.67
2024-03-05T17:57:32.976Z,6.69
2024-03-05T18:02:36.535Z,6.60
2024-03-05T18:07:41.522Z,6.57
2024-03-05T18:12:44.993Z,6.64
2024-03-05T18:17:49.838Z,6.67
2024-03-05T18:22:54.386Z,6.60
2024-03-05T18:27:57.296Z,6.64
2024-03-05T18:33:01.326Z,6.70
2024-03-05T18:43:12.596Z,6.53
2024-03-05T18:48:16.406Z,6.36
2024-03-05T18:53:26.031Z,6.46
2024-03-05T18:58:34.849Z,6.41
2024-03-05T19:03:37.756Z,6.41
2024-03-05T19:08:42.029Z,6.47
2024-03-05T19:13:45.802Z,6.48
2024-03-05T19:18:48.755Z,6.53
2024-03-05T19:23:52.993Z,6.48
2024-03-05T19:28:55.883Z,6.37
2024-03-05T19:33:59.497Z,6.56
2024-03-05T19:39:05.219Z,6.47
2024-03-05T19:44:08.978Z,6.46
2024-03-05T19:49:11.926Z,6.39
2024-03-05T19:54:16.534Z,6.45
2024-03-05T19:59:19.465Z,6.30
2024-03-05T20:04:22.358Z,6.24
2024-03-05T20:09:26.615Z,6.19
2024-03-05T20:14:29.721Z,6.11
2024-03-05T20:19:35.432Z,6.04
2024-03-05T20:24:39.791Z,5.97
2024-03-05T20:29:42.689Z,6.07
2024-03-05T20:34:49.442Z,6.16
2024-03-05T20:39:57.249Z,5.91
2024-03-05T20:45:00.238Z,5.97
2024-03-05T20:50:03.323Z,5.94
2024-03-05T20:55:09.859Z,5.96
2024-03-05T21:00:16.385Z,6.00
2024-03-05T21:05:20.227Z,5.94
2024-03-05T21:10:24.878Z,5.85
2024-03-05T21:15:27.899Z,5.82
2024-03-05T21:20:31.330Z,5.55
2024-03-05T21:25:44.618Z,5.71
2024-03-05T21:31:00.786Z,5.75
2024-03-05T21:36:03.838Z,5.43
2024-03-05T21:41:10.091Z,5.58
2024-03-05T21:46:13.980Z,5.68
2024-03-05T21:51:17.032Z,5.41
2024-03-05T21:56:21.956Z,5.27
2024-03-05T22:01:25.100Z,5.41
2024-03-05T22:06:28.008Z,5.35
2024-03-05T22:11:32.299Z,5.22
2024-03-05T22:16:35.212Z,5.15
2024-03-05T22:21:39.064Z,5.05
2024-03-05T22:26:43.422Z,5.01
2024-03-05T22:31:46.383Z,4.80
2024-03-05T22:36:49.323Z,4.57
2024-03-05T22:41:53.935Z,4.44
2024-03-05T22:46:56.917Z,4.42
2024-03-05T22:51:59.825Z,4.24
2024-03-05T22:57:05.581Z,4.22
2024-03-05T23:02:08.543Z,4.06
2024-03-05T23:07:11.521Z,4.00
2024-03-05T23:12:16.509Z,3.93
2024-03-05T23:17:19.570Z,3.89
2024-03-05T23:22:23.244Z,3.86
2024-03-05T23:27:27.605Z,3.85
2024-03-05T23:32:31.286Z,3.25
2024-03-05T23:37:35.201Z,3.72
2024-03-05T23:42:40.096Z,3.59
2024-03-05T23:47:43.110Z,3.74
2024-03-05T23:52:46.116Z,3.37
2024-03-05T23:57:50.465Z,3.07
